SBBE/BEL METAR and TAF weather

Enter ICAO airport designator
Station Type Date Time Source
SBBE METAR 2021/09/25 03:00 UTC NOAA

SBBE 250300Z 07004KT CAVOK 25/23 Q1014


Station Type Date Time Source
SBBE Decoded METAR 2021/09/25 03:00 UTC NOAA

Belem Aeroporto , Brazil (SBBE) 01-23S 048-29W 16M
Sep 24, 2021 - 11:00 PM EDT / 2021.09.25 0300 UTC
Wind: from the ENE (070 degrees) at 5 MPH (4 KT):0
Visibility: greater than 7 mile(s):0
Temperature: 77 F (25 C)
Dew Point: 73 F (23 C)
Relative Humidity: 88%
Pressure (altimeter): 29.94 in. Hg (1014 hPa)
ob: SBBE 250300Z 07004KT CAVOK 25/23 Q1014
cycle: 3

Station Type Date Time Source
SBBE TAF 2021/09/25 00:00 UTC NOAA

TAF SBBE 242100Z 2500/2524 07005KT 7000 SCT017 TN24/2509Z TX31/2516Z
BECMG 2513/2515 34010KT 8000 BKN025 FEW030TCU
TEMPO 2518/2520 01012KT 4000 TSRA BKN030 FEW035CB
RMK PGU

Example: see airport list